Time;durP1;ratioP1;P1;durP2;ratioP2;P2;SDS_P1;SDS_P2;PMS_P1;PMS_P2;Temp;Humidity;BMP_temperature;BMP_pressure;BME280_temperature;BME280_humidity;BME280_pressure;Samples;Min_cycle;Max_cycle;Signal;HPM_P1;HPM_P2
2021/05/03 00:00:35;;;;;;;9.70;4.67;;;4.80;97.30;;;;;;4938706;29;20270;-88
2021/05/03 00:03:00;;;;;;;9.33;5.30;;;4.80;97.30;;;;;;4938783;29;20223;-89
2021/05/03 00:05:27;;;;;;;8.03;5.00;;;4.80;97.30;;;;;;4938801;29;20654;-88
2021/05/03 00:07:55;;;;;;;8.20;4.90;;;4.80;97.30;;;;;;4956049;29;20183;-88
2021/05/03 00:10:20;;;;;;;7.27;5.13;;;4.90;97.30;;;;;;4956118;29;20953;-88
2021/05/03 00:12:46;;;;;;;11.37;5.60;;;4.90;97.30;;;;;;4938551;29;20469;-88
2021/05/03 00:15:14;;;;;;;7.30;4.57;;;4.90;97.30;;;;;;4938647;29;20179;-88
2021/05/03 00:17:40;;;;;;;9.43;4.40;;;5.00;97.30;;;;;;4938596;29;20553;-88
2021/05/03 00:20:07;;;;;;;9.00;5.00;;;5.00;97.30;;;;;;4938536;29;20414;-89
2021/05/03 00:22:33;;;;;;;8.83;4.73;;;5.00;97.30;;;;;;4938306;29;20230;-88
2021/05/03 00:24:58;;;;;;;7.83;5.20;;;5.00;97.30;;;;;;4938758;29;20423;-90
2021/05/03 00:27:24;;;;;;;8.30;5.03;;;5.10;97.30;;;;;;4939423;29;20194;-88
2021/05/03 00:29:49;;;;;;;9.13;5.40;;;5.10;97.30;;;;;;4939022;29;20183;-88
2021/05/03 00:32:15;;;;;;;9.77;6.37;;;5.10;97.30;;;;;;4938950;29;20351;-89
2021/05/03 00:34:41;;;;;;;8.20;6.03;;;5.10;97.30;;;;;;4957328;29;20639;-89
2021/05/03 00:37:06;;;;;;;9.57;5.60;;;5.10;97.30;;;;;;4940053;29;20223;-88
2021/05/03 00:39:32;;;;;;;11.27;5.50;;;5.10;97.30;;;;;;4939812;29;20179;-89
2021/05/03 00:41:57;;;;;;;10.50;6.17;;;5.20;97.30;;;;;;4939864;29;20255;-89
2021/05/03 00:44:26;;;;;;;8.83;4.93;;;5.20;97.30;;;;;;4939637;29;20171;-89
2021/05/03 00:46:54;;;;;;;9.53;5.50;;;5.10;97.30;;;;;;4940036;29;20194;-86
2021/05/03 00:49:19;;;;;;;10.93;5.20;;;5.20;97.30;;;;;;4939780;29;20454;-89
2021/05/03 00:51:45;;;;;;;7.47;5.03;;;5.20;97.30;;;;;;4939237;29;20423;-88
2021/05/03 00:54:10;;;;;;;10.07;5.10;;;5.20;97.30;;;;;;4939295;29;20187;-89
2021/05/03 00:56:36;;;;;;;9.83;5.17;;;5.20;97.30;;;;;;4939681;29;20211;-88
2021/05/03 00:59:02;;;;;;;9.73;5.07;;;5.20;97.30;;;;;;4939627;29;20179;-89
2021/05/03 01:01:27;;;;;;;11.20;5.50;;;5.30;97.30;;;;;;4939231;29;20183;-88
2021/05/03 01:03:53;;;;;;;7.13;4.10;;;5.30;97.30;;;;;;4938311;29;20203;-87
2021/05/03 01:06:18;;;;;;;;;;;5.20;97.30;;;;;;4939054;29;20179;-88
2021/05/03 01:08:46;;;;;;;7.30;4.50;;;5.20;97.30;;;;;;4938367;29;20042;-88
2021/05/03 01:11:11;;;;;;;10.13;4.87;;;5.30;97.30;;;;;;4938803;29;20266;-86
2021/05/03 01:13:37;;;;;;;8.53;4.47;;;5.30;97.30;;;;;;4938243;29;20498;-88
2021/05/03 01:16:03;;;;;;;6.80;4.30;;;5.30;97.30;;;;;;4938656;29;20183;-88
2021/05/03 01:18:30;;;;;;;9.47;4.80;;;5.20;97.30;;;;;;4938438;29;20211;-89
2021/05/03 01:20:56;;;;;;;9.03;4.40;;;5.20;97.30;;;;;;4938235;29;20171;-88
2021/05/03 01:23:22;;;;;;;8.70;5.10;;;5.30;97.30;;;;;;4937981;29;20501;-86
2021/05/03 01:25:47;;;;;;;7.43;4.37;;;5.20;97.30;;;;;;4938904;29;20831;-88
2021/05/03 01:28:13;;;;;;;7.57;4.40;;;5.30;97.30;;;;;;4938575;29;20605;-88
2021/05/03 01:30:41;;;;;;;6.80;4.23;;;5.20;97.30;;;;;;4938716;29;20188;-88
2021/05/03 01:33:10;;;;;;;6.53;4.53;;;5.30;97.30;;;;;;4938127;29;20214;-88
2021/05/03 01:35:36;;;;;;;8.80;5.47;;;5.30;97.30;;;;;;4937960;29;20997;-88
2021/05/03 01:38:05;;;;;;;8.30;4.60;;;5.30;97.30;;;;;;4938054;29;20977;-88
2021/05/03 01:40:34;;;;;;;8.07;4.67;;;5.30;97.30;;;;;;4937717;29;20415;-88
2021/05/03 01:43:22;;;;;;;8.40;4.07;;;5.20;97.30;;;;;;4937026;29;20445;-88
2021/05/03 01:45:49;;;;;;;11.80;5.13;;;5.20;97.30;;;;;;4937121;29;20430;-88
2021/05/03 01:48:18;;;;;;;7.27;4.57;;;5.20;97.30;;;;;;4937175;29;20415;-88
2021/05/03 01:50:44;;;;;;;11.33;4.93;;;5.20;97.30;;;;;;4937401;29;20415;-88
2021/05/03 01:53:10;;;;;;;8.47;4.53;;;5.20;97.30;;;;;;4957783;29;20489;-88
2021/05/03 01:55:37;;;;;;;7.07;4.27;;;5.20;97.30;;;;;;4940603;29;20419;-88
2021/05/03 01:58:05;;;;;;;10.90;5.40;;;5.20;97.30;;;;;;4957832;29;20499;-88
2021/05/03 02:00:32;;;;;;;7.67;5.03;;;5.20;97.30;;;;;;4958274;29;20435;-88
2021/05/03 02:02:58;;;;;;;9.63;5.00;;;5.20;97.30;;;;;;4940776;29;20434;-88
2021/05/03 02:05:30;;;;;;;8.63;4.90;;;5.20;97.30;;;;;;4940890;29;20423;-89
2021/05/03 02:07:59;;;;;;;8.80;4.90;;;5.20;97.30;;;;;;4940240;29;20439;-88
2021/05/03 02:10:28;;;;;;;11.20;5.43;;;5.10;97.30;;;;;;4956464;29;20419;-89
2021/05/03 02:12:57;;;;;;;8.63;4.60;;;5.10;97.30;;;;;;4939211;29;20525;-88
2021/05/03 02:37:30;;;;;;;7.93;4.47;;;4.80;97.30;;;;;;4879239;29;20824;-88
2021/05/03 02:43:01;;;;;;;9.33;5.07;;;4.70;97.30;;;;;;5009342;23;20549;-87
2021/05/03 02:45:31;;;;;;;9.97;5.17;;;4.70;97.30;;;;;;4957513;29;20414;-87
2021/05/03 02:48:00;;;;;;;8.10;4.53;;;4.70;97.30;;;;;;4940603;29;20476;-87
2021/05/03 02:50:26;;;;;;;11.00;5.10;;;4.60;97.30;;;;;;4957506;29;20403;-86
2021/05/03 02:52:53;;;;;;;7.47;5.03;;;4.60;97.30;;;;;;4940661;29;20463;-87
2021/05/03 02:55:20;;;;;;;9.00;5.13;;;4.60;97.30;;;;;;4957467;29;20450;-87
2021/05/03 02:57:47;;;;;;;7.63;5.03;;;4.60;97.30;;;;;;4941026;29;20798;-86
2021/05/03 03:00:15;;;;;;;6.40;4.80;;;4.60;97.30;;;;;;4940472;29;21001;-87
2021/05/03 03:02:41;;;;;;;9.77;5.43;;;4.60;97.30;;;;;;4940322;29;20427;-87
2021/05/03 03:05:07;;;;;;;11.70;5.40;;;4.60;97.30;;;;;;4940733;29;20508;-87
2021/05/03 03:07:35;;;;;;;8.93;5.47;;;4.60;97.30;;;;;;4939539;29;20493;-87
2021/05/03 03:10:01;;;;;;;10.00;5.20;;;4.60;97.30;;;;;;4938890;29;20427;-87
2021/05/03 03:12:26;;;;;;;12.20;6.03;;;4.60;97.30;;;;;;4939333;29;20865;-87
2021/05/03 03:14:52;;;;;;;8.63;5.33;;;4.60;97.30;;;;;;4939215;29;20176;-88
2021/05/03 03:17:17;;;;;;;9.20;4.97;;;4.60;97.30;;;;;;4939290;29;20726;-87
2021/05/03 03:19:43;;;;;;;8.97;5.03;;;4.60;97.30;;;;;;4939162;29;20258;-87
2021/05/03 03:22:09;;;;;;;9.93;4.93;;;4.60;97.30;;;;;;4938728;29;20199;-87
2021/05/03 03:24:35;;;;;;;8.97;5.57;;;4.60;97.30;;;;;;4938840;29;20415;-87
2021/05/03 03:27:02;;;;;;;8.67;5.33;;;4.60;97.30;;;;;;4939255;29;20445;-87
2021/05/03 03:29:28;;;;;;;9.63;5.53;;;4.60;97.30;;;;;;4939683;29;20961;-88
2021/05/03 03:31:53;;;;;;;11.80;4.97;;;4.60;97.30;;;;;;4938977;29;20446;-87
2021/05/03 03:34:19;;;;;;;9.00;5.03;;;4.60;97.30;;;;;;4939139;29;20175;-88
2021/05/03 03:36:46;;;;;;;7.87;4.57;;;4.60;97.30;;;;;;4938874;29;20194;-87
2021/05/03 03:39:12;;;;;;;8.13;4.70;;;4.60;97.30;;;;;;4938113;29;20501;-88
2021/05/03 03:41:37;;;;;;;8.27;5.23;;;4.60;97.30;;;;;;4938094;29;20470;-87
2021/05/03 03:44:03;;;;;;;17.10;5.77;;;4.60;97.30;;;;;;4938049;29;20175;-87
2021/05/03 03:46:29;;;;;;;9.50;4.90;;;4.70;97.30;;;;;;4937248;29;20734;-88
2021/05/03 03:48:55;;;;;;;8.37;4.70;;;4.70;97.30;;;;;;4937184;29;20503;-88
2021/05/03 03:51:21;;;;;;;9.50;4.60;;;4.70;97.30;;;;;;4937133;29;20439;-87
2021/05/03 03:53:46;;;;;;;9.87;5.20;;;4.70;97.30;;;;;;4936897;29;20238;-88
2021/05/03 03:56:13;;;;;;;8.37;5.40;;;4.70;97.30;;;;;;4937060;29;20447;-87
2021/05/03 03:58:40;;;;;;;10.70;5.80;;;4.80;97.30;;;;;;4937056;29;20231;-88
2021/05/03 04:01:05;;;;;;;9.73;4.77;;;4.80;97.30;;;;;;4937029;29;20953;-87
2021/05/03 04:03:31;;;;;;;8.40;5.10;;;4.80;97.30;;;;;;4937297;29;20425;-87
2021/05/03 04:09:05;;;;;;;7.40;4.93;;;4.80;97.30;;;;;;4955067;29;20171;-88
2021/05/03 04:25:08;;;;;;;9.43;4.80;;;4.90;97.30;;;;;;4954916;29;20411;-87
2021/05/03 04:27:34;;;;;;;8.47;5.13;;;4.90;97.30;;;;;;4954332;28;20223;-88
2021/05/03 04:30:00;;;;;;;10.50;5.20;;;5.00;97.30;;;;;;4937237;29;20510;-88
2021/05/03 04:32:25;;;;;;;11.93;5.80;;;5.00;97.30;;;;;;4937716;29;20550;-88
2021/05/03 04:34:51;;;;;;;10.40;5.53;;;5.00;97.30;;;;;;4937359;29;20176;-87
2021/05/03 04:37:18;;;;;;;11.67;5.80;;;5.00;97.30;;;;;;4936947;29;20186;-88
2021/05/03 04:39:44;;;;;;;10.20;5.40;;;5.10;97.30;;;;;;4954159;29;20190;-88
2021/05/03 04:42:09;;;;;;;10.67;5.40;;;5.10;97.30;;;;;;4937233;29;20993;-88
2021/05/03 04:44:35;;;;;;;7.83;5.13;;;5.10;97.30;;;;;;4938380;29;20180;-88
2021/05/03 04:47:00;;;;;;;10.20;5.50;;;5.10;97.30;;;;;;4938127;29;20662;-88
2021/05/03 04:49:27;;;;;;;7.13;5.00;;;5.10;97.30;;;;;;4956355;29;20304;-88
2021/05/03 04:51:52;;;;;;;11.00;5.33;;;5.20;97.30;;;;;;4956081;29;20187;-87
2021/05/03 04:54:18;;;;;;;7.00;4.73;;;5.20;97.30;;;;;;4938422;29;20937;-87
2021/05/03 04:56:46;;;;;;;7.10;4.73;;;5.20;97.30;;;;;;4956382;29;20266;-87
2021/05/03 04:59:11;;;;;;;9.57;5.60;;;5.20;97.30;;;;;;4955225;29;20237;-88
2021/05/03 05:01:37;;;;;;;9.10;5.37;;;5.30;97.30;;;;;;4936827;29;20439;-87
2021/05/03 05:04:05;;;;;;;10.90;5.93;;;5.30;97.30;;;;;;4938748;29;20215;-87
2021/05/03 05:06:30;;;;;;;9.13;4.93;;;5.40;97.30;;;;;;4938300;29;20651;-87
2021/05/03 05:08:56;;;;;;;11.13;5.70;;;5.40;97.30;;;;;;4938125;29;20509;-88
2021/05/03 05:11:21;;;;;;;10.80;5.77;;;5.40;97.30;;;;;;4938325;29;20199;-87
2021/05/03 05:13:47;;;;;;;8.10;4.80;;;5.40;97.30;;;;;;4938417;29;20590;-87
2021/05/03 05:16:13;;;;;;;7.97;5.27;;;5.50;97.30;;;;;;4937539;29;20563;-88
2021/05/03 05:18:38;;;;;;;8.30;5.87;;;5.50;97.30;;;;;;4937010;29;20190;-86
2021/05/03 05:21:04;;;;;;;7.60;5.30;;;5.50;97.30;;;;;;4936672;29;20207;-87
2021/05/03 05:23:29;;;;;;;10.03;5.30;;;5.60;97.30;;;;;;4937400;29;20322;-86
2021/05/03 05:25:55;;;;;;;7.87;5.10;;;5.60;97.30;;;;;;4939383;29;20185;-87
2021/05/03 05:28:20;;;;;;;6.90;4.83;;;5.60;97.30;;;;;;4941300;29;20187;-88
2021/05/03 05:30:46;;;;;;;13.30;5.53;;;5.60;97.30;;;;;;4940861;29;20289;-87
2021/05/03 05:33:11;;;;;;;15.20;5.40;;;5.60;97.30;;;;;;4941007;29;20519;-87
2021/05/03 05:35:37;;;;;;;8.30;5.47;;;5.70;97.30;;;;;;4940808;29;20183;-87
2021/05/03 05:38:02;;;;;;;8.70;5.57;;;5.70;97.30;;;;;;4940368;29;20267;-88
2021/05/03 05:40:28;;;;;;;10.90;5.80;;;5.70;97.30;;;;;;4940279;29;20179;-87
2021/05/03 05:42:53;;;;;;;9.37;5.03;;;5.80;97.30;;;;;;4940485;29;20193;-87
2021/05/03 05:45:19;;;;;;;8.60;5.30;;;5.80;97.30;;;;;;4940811;29;20594;-87
2021/05/03 05:47:44;;;;;;;9.30;6.10;;;5.90;97.30;;;;;;4940358;29;20190;-87
2021/05/03 05:50:10;;;;;;;8.60;4.97;;;5.90;97.30;;;;;;4957754;29;20183;-87
2021/05/03 05:52:36;;;;;;;13.23;5.73;;;5.90;97.30;;;;;;4939901;29;20690;-88
2021/05/03 05:55:02;;;;;;;10.20;6.30;;;6.00;97.30;;;;;;4940142;29;20175;-87
2021/05/03 05:57:27;;;;;;;8.03;5.07;;;6.10;97.30;;;;;;4940466;29;20726;-87
2021/05/03 05:59:53;;;;;;;12.80;5.90;;;6.10;97.30;;;;;;4939874;29;20426;-87
2021/05/03 06:02:18;;;;;;;7.90;5.43;;;6.10;97.30;;;;;;4939349;29;20216;-87
2021/05/03 06:04:44;;;;;;;11.10;5.30;;;6.20;97.30;;;;;;4939200;29;20181;-88
2021/05/03 06:07:09;;;;;;;7.23;4.90;;;6.30;97.30;;;;;;4939431;29;20709;-87
2021/05/03 06:09:35;;;;;;;7.20;4.90;;;6.30;97.30;;;;;;4938729;29;20185;-88
2021/05/03 06:12:00;;;;;;;8.20;5.10;;;6.40;97.30;;;;;;4938910;29;20299;-87
2021/05/03 06:14:26;;;;;;;9.07;5.47;;;6.40;97.30;;;;;;4956020;29;20176;-87
2021/05/03 06:16:56;;;;;;;6.90;4.57;;;6.50;97.30;;;;;;4938722;29;20211;-88
2021/05/03 06:19:22;;;;;;;7.53;4.67;;;6.50;97.30;;;;;;4939087;29;20191;-88
2021/05/03 06:21:47;;;;;;;9.77;5.40;;;6.60;97.30;;;;;;4956475;29;20434;-87
2021/05/03 06:24:13;;;;;;;8.60;4.97;;;6.60;97.30;;;;;;4939748;29;20179;-89
2021/05/03 06:26:38;;;;;;;9.27;5.50;;;6.60;97.30;;;;;;4939162;29;20187;-87
2021/05/03 06:29:04;;;;;;;8.47;5.80;;;6.60;97.30;;;;;;4939969;29;20190;-87
2021/05/03 06:31:31;;;;;;;8.90;5.30;;;6.60;97.30;;;;;;4940785;29;20290;-87
2021/05/03 06:33:57;;;;;;;9.40;4.93;;;6.50;97.30;;;;;;4939118;29;20214;-88
2021/05/03 06:36:25;;;;;;;8.90;5.60;;;6.40;97.30;;;;;;4938525;28;20518;-87
2021/05/03 06:38:50;;;;;;;8.00;4.93;;;6.50;97.30;;;;;;4938839;29;20211;-87
2021/05/03 06:41:16;;;;;;;11.10;5.60;;;6.60;97.30;;;;;;4938703;29;20998;-87
2021/05/03 06:43:41;;;;;;;7.37;5.37;;;6.70;97.30;;;;;;4939105;29;20551;-87
2021/05/03 06:46:07;;;;;;;11.63;5.50;;;6.80;97.30;;;;;;4938942;29;20183;-87
2021/05/03 06:48:32;;;;;;;8.00;4.67;;;6.80;97.30;;;;;;4938798;29;20683;-87
2021/05/03 06:50:58;;;;;;;10.73;5.30;;;7.00;97.30;;;;;;4938871;29;20215;-88
2021/05/03 06:53:25;;;;;;;9.50;5.30;;;7.10;97.30;;;;;;4938848;29;20226;-87
2021/05/03 06:55:51;;;;;;;8.10;5.20;;;7.20;97.30;;;;;;4939824;29;20179;-86
2021/05/03 06:58:16;;;;;;;17.07;6.57;;;7.30;97.30;;;;;;4940283;29;20429;-87
2021/05/03 07:00:42;;;;;;;8.70;5.67;;;7.30;97.30;;;;;;4939926;29;20198;-86
2021/05/03 07:03:12;;;;;;;8.57;4.83;;;7.50;97.30;;;;;;4940174;29;20218;-87
2021/05/03 07:05:39;;;;;;;9.43;5.10;;;7.60;97.30;;;;;;4941353;29;20183;-87
2021/05/03 07:08:05;;;;;;;9.97;5.00;;;7.60;97.30;;;;;;4940435;29;20414;-86
2021/05/03 07:10:31;;;;;;;7.43;5.00;;;7.70;97.30;;;;;;4941223;29;20427;-87
2021/05/03 07:12:57;;;;;;;8.20;4.87;;;7.70;97.30;;;;;;4940324;29;20843;-87
2021/05/03 07:15:23;;;;;;;6.50;4.60;;;7.70;97.30;;;;;;4940374;29;20199;-86
2021/05/03 07:17:49;;;;;;;7.27;4.77;;;7.70;96.50;;;;;;4939850;29;20427;-86
2021/05/03 07:20:15;;;;;;;8.37;4.27;;;7.80;96.10;;;;;;4940128;29;20419;-86
2021/05/03 07:22:41;;;;;;;7.67;3.93;;;7.90;96.10;;;;;;4956333;29;20254;-87
2021/05/03 07:25:08;;;;;;;7.20;3.73;;;8.00;94.40;;;;;;4956808;29;20422;-86
2021/05/03 07:27:35;;;;;;;7.60;4.10;;;8.10;93.80;;;;;;4939387;29;20934;-87
2021/05/03 07:30:00;;;;;;;4.97;3.40;;;8.30;93.70;;;;;;4940102;29;20839;-86
2021/05/03 07:32:26;;;;;;;5.70;3.93;;;8.20;92.70;;;;;;4939937;29;20912;-86
2021/05/03 07:34:51;;;;;;;5.20;4.00;;;8.20;92.10;;;;;;4939575;29;20194;-87
2021/05/03 07:37:17;;;;;;;5.07;4.00;;;8.30;92.30;;;;;;4939576;29;20176;-87
2021/05/03 07:39:43;;;;;;;9.00;3.53;;;8.50;91.70;;;;;;4939683;29;20195;-87
2021/05/03 07:42:09;;;;;;;4.00;3.10;;;8.60;91.90;;;;;;4939214;29;20881;-86
2021/05/03 07:44:35;;;;;;;4.77;3.33;;;8.60;90.30;;;;;;4939465;29;20183;-86
2021/05/03 07:47:01;;;;;;;5.20;4.10;;;8.80;90.90;;;;;;4938869;29;20426;-86
2021/05/03 07:49:27;;;;;;;4.30;3.33;;;8.80;90.70;;;;;;4937214;29;20183;-86
2021/05/03 07:51:53;;;;;;;4.73;3.83;;;8.80;91.40;;;;;;4937922;29;20962;-86
2021/05/03 07:54:18;;;;;;;10.17;3.43;;;8.80;90.70;;;;;;4938480;29;20222;-86
2021/05/03 07:56:44;;;;;;;5.23;3.30;;;8.80;90.40;;;;;;4938150;29;20262;-86
2021/05/03 07:59:10;;;;;;;6.77;3.43;;;8.80;89.40;;;;;;4937596;29;20605;-87
2021/05/03 08:01:36;;;;;;;6.50;3.40;;;8.70;89.40;;;;;;4955423;29;20195;-86
2021/05/03 08:04:02;;;;;;;8.83;3.70;;;9.00;89.90;;;;;;4938170;29;20183;-87
2021/05/03 08:06:27;;;;;;;6.20;3.50;;;9.20;89.40;;;;;;4937937;29;20443;-88
2021/05/03 08:08:53;;;;;;;6.00;3.90;;;9.20;87.70;;;;;;4938086;29;20194;-86
2021/05/03 08:11:20;;;;;;;4.33;3.53;;;9.20;87.70;;;;;;4938313;29;20203;-86
2021/05/03 08:13:47;;;;;;;4.10;3.47;;;9.10;88.30;;;;;;4937949;29;20207;-86
2021/05/03 08:16:15;;;;;;;7.90;3.70;;;9.00;88.50;;;;;;4955436;29;20419;-87
2021/05/03 08:18:41;;;;;;;7.47;4.03;;;8.90;89.40;;;;;;4937804;29;20415;-87
2021/05/03 08:21:09;;;;;;;6.30;3.20;;;8.90;90.20;;;;;;4938016;29;20535;-86
2021/05/03 08:23:37;;;;;;;7.33;3.47;;;9.00;90.10;;;;;;4937450;29;20481;-86
2021/05/03 08:26:11;;;;;;;4.80;3.30;;;9.00;89.70;;;;;;4937762;29;20485;-87
2021/05/03 08:28:39;;;;;;;3.57;2.83;;;9.00;88.40;;;;;;4937802;29;20522;-87
2021/05/03 08:31:05;;;;;;;6.50;4.17;;;8.70;88.80;;;;;;4937232;29;20442;-85
2021/05/03 08:33:30;;;;;;;4.83;3.00;;;8.80;90.20;;;;;;4937241;29;20458;-86
2021/05/03 08:35:58;;;;;;;5.70;3.27;;;8.70;89.30;;;;;;4954991;29;20183;-86
2021/05/03 08:38:24;;;;;;;5.13;3.30;;;8.60;88.80;;;;;;4937297;29;20430;-87
2021/05/03 08:43:19;;;;;;;4.10;3.30;;;9.40;88.30;;;;;;4975844;23;20791;-72
2021/05/03 08:45:47;;;;;;;5.10;3.40;;;9.60;87.20;;;;;;4936306;29;20403;-72
2021/05/03 08:48:19;;;;;;;9.33;3.57;;;9.60;87.60;;;;;;4935852;29;20422;-75
2021/05/03 08:51:06;;;;;;;4.67;3.70;;;9.60;87.90;;;;;;4953994;29;20427;-74
2021/05/03 08:53:42;;;;;;;4.47;3.60;;;9.60;87.30;;;;;;4935531;29;20458;-72
2021/05/03 08:56:08;;;;;;;5.07;3.20;;;9.70;88.00;;;;;;4936215;29;20415;-74
2021/05/03 08:58:39;;;;;;;5.80;3.47;;;9.60;87.70;;;;;;4936008;29;20918;-74
2021/05/03 09:01:06;;;;;;;7.17;3.83;;;9.40;87.10;;;;;;4935042;29;20439;-74
2021/05/03 09:03:33;;;;;;;6.53;3.60;;;9.30;87.50;;;;;;4936452;29;20449;-74
2021/05/03 09:06:04;;;;;;;6.40;4.00;;;9.50;88.80;;;;;;4936317;29;20415;-74
2021/05/03 09:08:31;;;;;;;5.30;3.20;;;9.90;87.50;;;;;;4935852;29;20423;-74
2021/05/03 09:10:58;;;;;;;7.00;3.30;;;10.30;87.70;;;;;;4935956;29;20446;-74
2021/05/03 09:13:29;;;;;;;6.20;3.50;;;10.50;85.90;;;;;;4953016;29;20458;-73
2021/05/03 09:16:22;;;;;;;6.53;4.07;;;10.40;84.90;;;;;;4935461;29;20423;-75
2021/05/03 09:18:48;;;;;;;4.00;3.27;;;10.20;85.50;;;;;;4936605;29;20423;-75
2021/05/03 09:21:33;;;;;;;6.90;3.10;;;10.40;85.60;;;;;;4952799;29;20430;-75
2021/05/03 09:24:04;;;;;;;5.13;3.40;;;10.40;86.20;;;;;;4952860;29;20426;-75
2021/05/03 09:26:49;;;;;;;4.70;3.30;;;9.90;83.70;;;;;;4936388;29;20423;-75
2021/05/03 09:29:25;;;;;;;4.83;3.43;;;9.90;85.80;;;;;;4935332;29;20433;-74
2021/05/03 09:32:00;;;;;;;4.40;2.83;;;10.30;85.40;;;;;;4953215;29;20453;-75
2021/05/03 09:34:27;;;;;;;3.77;2.77;;;10.70;85.60;;;;;;4952653;29;20453;-73
2021/05/03 09:36:54;;;;;;;6.30;3.70;;;11.00;85.00;;;;;;4952910;29;20770;-73
2021/05/03 09:39:30;;;;;;;3.90;2.97;;;11.10;83.40;;;;;;4936440;29;20942;-74
2021/05/03 09:41:55;;;;;;;3.37;2.60;;;10.80;83.10;;;;;;4934869;29;21060;-74
2021/05/03 09:44:21;;;;;;;3.20;2.63;;;10.50;82.50;;;;;;4935605;29;20430;-75
2021/05/03 09:46:48;;;;;;;4.23;2.80;;;10.80;83.60;;;;;;4956782;28;20545;-75
2021/05/03 09:49:16;;;;;;;4.60;2.90;;;11.00;84.00;;;;;;4971428;28;20170;-74
2021/05/03 09:52:00;;;;;;;3.10;2.73;;;11.00;82.60;;;;;;4971909;28;20445;-73
2021/05/03 09:54:28;;;;;;;8.30;2.80;;;10.80;83.40;;;;;;4954807;28;20912;-75
2021/05/03 09:57:05;;;;;;;4.07;2.77;;;10.70;83.20;;;;;;4955025;28;20505;-75
2021/05/03 09:59:49;;;;;;;3.40;2.43;;;10.60;83.80;;;;;;4971363;28;20417;-73
2021/05/03 10:02:28;;;;;;;5.23;3.03;;;10.80;85.80;;;;;;4954893;28;20440;-73
2021/05/03 10:05:02;;;;;;;3.77;2.83;;;11.20;85.50;;;;;;4951876;28;20434;-75
2021/05/03 10:07:29;;;;;;;2.93;2.20;;;11.50;83.50;;;;;;4963160;28;20413;-75
2021/05/03 10:12:26;;;;;;;4.03;2.43;;;11.30;83.30;;;;;;4954484;28;20589;-74
2021/05/03 10:14:52;;;;;;;3.70;2.83;;;11.30;82.70;;;;;;4956058;29;20407;-74
2021/05/03 10:17:19;;;;;;;6.87;3.30;;;11.40;82.60;;;;;;4939557;29;20498;-75
2021/05/03 10:19:46;;;;;;;5.33;3.17;;;11.40;83.50;;;;;;4938293;29;20469;-75
2021/05/03 10:22:22;;;;;;;3.80;2.83;;;11.30;83.50;;;;;;4938942;29;20445;-76
2021/05/03 10:24:52;;;;;;;4.47;2.47;;;11.20;83.40;;;;;;4939116;29;20425;-76
2021/05/03 10:27:19;;;;;;;3.60;2.47;;;11.30;85.40;;;;;;4938752;29;20423;-75
2021/05/03 10:29:46;;;;;;;4.90;3.03;;;11.60;83.40;;;;;;4939046;29;20415;-73
2021/05/03 10:32:20;;;;;;;5.93;3.10;;;11.80;81.90;;;;;;4938629;29;20843;-75
2021/05/03 10:34:52;;;;;;;4.27;3.00;;;11.90;83.80;;;;;;4938256;29;20418;-76
2021/05/03 10:37:39;;;;;;;3.73;3.00;;;11.80;82.70;;;;;;4939127;29;20422;-76
2021/05/03 10:40:26;;;;;;;3.50;2.57;;;11.40;83.10;;;;;;4938016;29;20421;-76
2021/05/03 10:43:01;;;;;;;4.80;2.70;;;11.20;83.20;;;;;;4925752;29;20720;-76
2021/05/03 10:46:06;;;;;;;3.57;2.90;;;11.30;83.10;;;;;;4956334;29;20418;-76
2021/05/03 10:51:30;;;;;;;3.90;2.70;;;11.90;82.50;;;;;;4974587;28;20461;-76
2021/05/03 10:53:57;;;;;;;2.83;2.70;;;12.20;82.00;;;;;;4974658;28;20445;-76
2021/05/03 10:56:43;;;;;;;3.50;2.70;;;11.70;80.60;;;;;;4957491;28;20925;-75
2021/05/03 10:59:10;;;;;;;3.00;2.70;;;11.50;80.30;;;;;;4957438;28;20414;-76
2021/05/03 11:01:51;;;;;;;4.60;2.63;;;11.60;81.00;;;;;;4956715;28;20426;-74
2021/05/03 11:04:17;;;;;;;3.23;3.03;;;11.70;81.00;;;;;;4957598;28;20496;-76
2021/05/03 11:06:43;;;;;;;4.40;2.83;;;11.80;80.60;;;;;;4957109;28;20418;-76
2021/05/03 11:09:28;;;;;;;3.80;2.60;;;11.90;81.20;;;;;;4956935;28;20944;-76
2021/05/03 11:11:55;;;;;;;4.37;2.90;;;11.90;81.00;;;;;;4957304;28;20700;-77
2021/05/03 11:14:21;;;;;;;4.10;2.40;;;11.70;80.60;;;;;;4957053;28;20985;-76
2021/05/03 11:17:03;;;;;;;4.90;2.90;;;11.70;81.30;;;;;;4957044;28;20414;-76
2021/05/03 11:19:38;;;;;;;3.47;2.33;;;11.70;81.50;;;;;;4974988;28;20414;-74
2021/05/03 11:22:16;;;;;;;5.07;2.80;;;11.80;81.80;;;;;;4956446;28;20457;-75
2021/05/03 11:24:54;;;;;;;6.77;2.90;;;12.00;82.10;;;;;;4957391;28;20410;-76
2021/05/03 11:27:42;;;;;;;4.17;3.00;;;11.90;80.70;;;;;;4957040;28;20762;-75
2021/05/03 11:30:18;;;;;;;4.17;3.20;;;12.30;80.70;;;;;;4956703;28;20537;-76
2021/05/03 11:32:47;;;;;;;4.70;2.93;;;12.80;80.70;;;;;;4957191;28;20465;-75
2021/05/03 11:37:42;;;;;;;5.03;3.77;;;12.70;80.00;;;;;;4974586;28;21041;-75
2021/05/03 11:45:28;;;;;;;3.57;3.33;;;12.60;80.40;;;;;;4974303;28;20465;-77
2021/05/03 11:47:55;;;;;;;5.97;3.43;;;12.50;80.30;;;;;;4944515;29;20419;-76
2021/05/03 11:50:23;;;;;;;6.93;3.70;;;12.70;79.90;;;;;;4937005;29;20439;-77
2021/05/03 11:52:49;;;;;;;6.23;3.10;;;12.60;79.30;;;;;;4938057;29;20466;-77
2021/05/03 11:55:20;;;;;;;5.30;3.53;;;12.50;79.20;;;;;;4937516;29;20457;-77
2021/05/03 11:57:47;;;;;;;6.30;3.90;;;12.40;79.10;;;;;;4954514;29;20875;-76
2021/05/03 12:00:15;;;;;;;4.87;3.50;;;12.50;79.20;;;;;;4937418;29;20470;-77
2021/05/03 12:02:41;;;;;;;5.30;4.10;;;12.40;80.50;;;;;;4936818;29;20500;-74
2021/05/03 12:05:11;;;;;;;5.97;3.80;;;12.50;80.80;;;;;;4937125;29;20449;-75
2021/05/03 12:07:37;;;;;;;6.53;4.10;;;12.50;80.30;;;;;;4937350;29;20789;-74
2021/05/03 12:10:10;;;;;;;5.07;3.27;;;12.60;81.20;;;;;;4936344;29;20422;-75
2021/05/03 12:12:52;;;;;;;6.93;4.70;;;12.70;80.90;;;;;;4936920;29;20203;-74
2021/05/03 12:15:27;;;;;;;4.43;3.47;;;12.80;80.10;;;;;;4937352;29;20772;-75
2021/05/03 12:17:54;;;;;;;4.60;4.10;;;12.80;79.30;;;;;;4936409;29;20423;-74
2021/05/03 12:20:24;;;;;;;7.93;4.30;;;13.00;80.40;;;;;;4937366;29;20517;-75
2021/05/03 12:23:00;;;;;;;3.90;3.40;;;13.50;78.90;;;;;;4936574;29;20466;-75
2021/05/03 12:25:28;;;;;;;5.10;4.10;;;14.20;79.10;;;;;;4937101;29;20422;-75
2021/05/03 12:27:54;;;;;;;5.87;3.90;;;14.40;78.00;;;;;;4937280;29;20819;-75
2021/05/03 12:30:23;;;;;;;5.37;3.53;;;14.50;77.80;;;;;;4935986;29;20426;-75
2021/05/03 12:32:48;;;;;;;4.63;3.80;;;14.20;76.70;;;;;;4936479;29;20462;-76
2021/05/03 12:35:17;;;;;;;4.87;4.00;;;14.40;77.80;;;;;;4936326;29;20434;-74
2021/05/03 12:37:43;;;;;;;4.90;3.50;;;14.40;77.40;;;;;;4936008;29;20587;-75
2021/05/03 12:40:17;;;;;;;10.50;4.10;;;14.00;77.60;;;;;;4936576;29;20513;-75
2021/05/03 12:42:51;;;;;;;5.43;3.77;;;13.90;78.60;;;;;;4936946;29;21077;-74
2021/05/03 12:45:44;;;;;;;3.77;3.60;;;14.30;77.50;;;;;;4936232;29;21015;-75
2021/05/03 12:50:51;;;;;;;5.23;3.60;;;14.80;75.10;;;;;;4973716;28;20456;-75
2021/05/03 13:01:38;;;;;;;9.73;3.77;;;14.90;75.30;;;;;;4973184;28;20437;-77
2021/05/03 13:04:20;;;;;;;6.00;3.83;;;14.80;74.40;;;;;;4955501;28;20956;-75
2021/05/03 13:29:14;;;;;;;5.20;4.33;;;15.30;75.00;;;;;;4973796;28;20735;-76
2021/05/03 13:31:43;;;;;;;9.30;3.93;;;15.40;73.20;;;;;;4955983;28;20449;-78
2021/05/03 13:34:10;;;;;;;6.70;4.00;;;15.60;73.40;;;;;;4972035;28;20465;-78
2021/05/03 13:36:37;;;;;;;4.43;3.50;;;16.00;72.60;;;;;;4956239;28;20429;-78
2021/05/03 13:39:06;;;;;;;4.70;3.23;;;16.00;71.30;;;;;;4955075;28;20504;-78
2021/05/03 13:41:37;;;;;;;5.03;4.00;;;16.40;72.50;;;;;;4955331;28;20442;-76
2021/05/03 13:44:04;;;;;;;5.60;3.93;;;16.40;71.00;;;;;;4955442;28;20501;-78
2021/05/03 13:46:30;;;;;;;5.10;4.13;;;16.10;71.70;;;;;;4953544;28;20414;-78
2021/05/03 13:48:55;;;;;;;5.53;4.23;;;15.50;71.30;;;;;;4940561;29;20415;-76
2021/05/03 13:51:23;;;;;;;7.30;4.47;;;15.10;72.60;;;;;;4939926;29;20207;-77
2021/05/03 13:53:49;;;;;;;4.57;3.77;;;15.00;74.00;;;;;;4938661;29;20683;-78
2021/05/03 13:56:15;;;;;;;4.30;3.67;;;15.70;73.70;;;;;;4939573;29;20504;-78
2021/05/03 13:58:41;;;;;;;3.50;3.30;;;16.40;72.30;;;;;;4939395;29;20415;-78
2021/05/03 14:01:07;;;;;;;4.83;3.63;;;17.10;72.80;;;;;;4938602;29;20446;-78
2021/05/03 14:03:33;;;;;;;4.70;3.93;;;17.20;69.50;;;;;;4940544;29;20422;-75
2021/05/03 14:05:58;;;;;;;4.63;3.97;;;16.80;68.30;;;;;;4940341;29;20190;-77
2021/05/03 14:08:24;;;;;;;4.07;3.80;;;16.50;67.40;;;;;;4939562;29;20226;-78
2021/05/03 14:10:50;;;;;;;4.83;3.57;;;16.40;69.30;;;;;;4940484;29;20206;-77
2021/05/03 14:13:16;;;;;;;4.60;3.50;;;16.70;69.00;;;;;;4940861;29;20706;-78
2021/05/03 14:15:42;;;;;;;6.37;4.00;;;16.40;69.90;;;;;;4939176;29;20640;-76
2021/05/03 14:18:10;;;;;;;5.37;3.53;;;15.40;68.80;;;;;;4957584;29;20186;-78
2021/05/03 14:20:37;;;;;;;5.23;3.53;;;15.00;70.50;;;;;;4938945;29;20434;-78
2021/05/03 14:23:02;;;;;;;5.60;3.80;;;15.10;71.70;;;;;;4956556;29;20415;-78
2021/05/03 14:25:31;;;;;;;4.43;3.27;;;15.20;71.70;;;;;;4940150;29;20685;-78
2021/05/03 14:27:59;;;;;;;6.10;3.80;;;15.70;72.00;;;;;;4938792;29;20642;-75